createdAt,value
2023-03-06T00:01:09.005Z,100452.03
2023-03-06T00:03:39.281Z,100455.56
2023-03-06T00:06:14.368Z,100455.34
2023-03-06T00:11:21.697Z,100455.75
2023-03-06T00:13:59.789Z,100456.69
2023-03-06T00:16:37.448Z,100450.34
2023-03-06T00:19:05.310Z,100456.97
2023-03-06T00:21:48.905Z,100445.16
2023-03-06T00:24:27.625Z,100453.63
2023-03-06T00:29:40.403Z,100447.25
2023-03-06T00:32:14.553Z,100442.69
2023-03-06T00:34:41.675Z,100444.31
2023-03-06T00:37:10.045Z,100441.75
2023-03-06T00:39:37.516Z,100448.25
2023-03-06T00:42:16.058Z,100441.31
2023-03-06T00:44:54.974Z,100443.00
2023-03-06T00:47:26.661Z,100439.97
2023-03-06T00:50:01.208Z,100439.38
2023-03-06T00:52:28.354Z,100436.91
2023-03-06T00:55:05.711Z,100431.97
2023-03-06T00:57:40.276Z,100416.44
2023-03-06T01:00:10.571Z,100422.94
2023-03-06T01:02:38.738Z,100423.34
2023-03-06T01:05:11.677Z,100427.53
2023-03-06T01:07:41.688Z,100423.47
2023-03-06T01:10:17.958Z,100423.25
2023-03-06T01:12:48.251Z,100419.53
2023-03-06T01:15:33.974Z,100417.31
2023-03-06T01:18:10.609Z,100415.69
2023-03-06T01:20:41.260Z,100410.94
2023-03-06T01:23:30.901Z,100412.06
2023-03-06T01:26:03.351Z,100403.97
2023-03-06T01:28:30.356Z,100399.81
2023-03-06T01:31:04.347Z,100396.44
2023-03-06T01:33:40.458Z,100392.78
2023-03-06T01:36:12.234Z,100395.81
2023-03-06T01:38:42.362Z,100382.22
2023-03-06T01:41:34.423Z,100386.47
2023-03-06T01:44:07.335Z,100382.28
2023-03-06T01:46:43.538Z,100379.44
2023-03-06T01:49:19.957Z,100374.81
2023-03-06T01:51:54.695Z,100380.09
2023-03-06T01:54:29.130Z,100373.72
2023-03-06T01:57:19.542Z,100373.88
2023-03-06T01:59:53.146Z,100375.19
2023-03-06T02:02:27.455Z,100373.56
2023-03-06T02:04:54.487Z,100359.44
2023-03-06T02:07:21.835Z,100364.63
2023-03-06T02:09:51.952Z,100363.34
2023-03-06T02:12:39.812Z,100361.19
2023-03-06T02:15:29.984Z,100359.91
2023-03-06T02:18:00.647Z,100357.53
2023-03-06T02:20:52.019Z,100365.81
2023-03-06T02:23:51.942Z,100361.38
2023-03-06T02:26:22.202Z,100373.94
2023-03-06T02:28:58.532Z,100364.22
2023-03-06T02:31:33.436Z,100368.59
2023-03-06T02:34:37.850Z,100365.53
2023-03-06T02:37:15.094Z,100367.41
2023-03-06T02:39:52.177Z,100353.75
2023-03-06T02:42:25.350Z,100355.66
2023-03-06T02:44:57.920Z,100351.75
2023-03-06T02:47:24.577Z,100359.88
2023-03-06T02:50:00.907Z,100350.16
2023-03-06T02:52:31.863Z,100352.16
2023-03-06T02:55:01.807Z,100352.56
2023-03-06T02:57:31.370Z,100347.56
2023-03-06T02:59:59.725Z,100349.84
2023-03-06T03:02:28.537Z,100354.75
2023-03-06T03:05:07.047Z,100356.34
2023-03-06T03:10:29.345Z,100359.16
2023-03-06T03:12:59.454Z,100358.00
2023-03-06T03:15:26.507Z,100351.94
2023-03-06T03:17:53.522Z,100353.16
2023-03-06T03:20:22.453Z,100346.63
2023-03-06T03:22:51.361Z,100344.97
2023-03-06T03:25:18.933Z,100343.25
2023-03-06T03:27:46.260Z,100336.78
2023-03-06T03:30:13.626Z,100344.50
2023-03-06T03:32:42.822Z,100335.13
2023-03-06T03:35:29.279Z,100344.16
2023-03-06T03:38:11.038Z,100339.50
2023-03-06T03:43:37.880Z,100335.38
2023-03-06T03:46:14.006Z,100343.16
2023-03-06T03:48:57.027Z,100335.84
2023-03-06T03:51:23.813Z,100337.91
2023-03-06T03:53:51.979Z,100338.59
2023-03-06T03:56:18.919Z,100337.22
2023-03-06T03:58:57.689Z,100327.56
2023-03-06T04:01:39.675Z,100337.97
2023-03-06T04:07:10.444Z,100331.53
2023-03-06T04:09:40.317Z,100333.34
2023-03-06T04:12:10.254Z,100326.88
2023-03-06T04:14:39.913Z,100325.78
2023-03-06T04:17:06.762Z,100319.59
2023-03-06T04:19:33.910Z,100322.81
2023-03-06T04:22:04.080Z,100316.25
2023-03-06T04:24:42.292Z,100321.63
2023-03-06T04:27:25.021Z,100320.44
2023-03-06T04:30:04.441Z,100318.19
2023-03-06T04:32:34.192Z,100319.00
2023-03-06T04:35:01.290Z,100319.63
2023-03-06T04:37:37.735Z,100319.50
2023-03-06T04:40:13.729Z,100319.88
2023-03-06T04:43:08.602Z,100307.66
2023-03-06T04:45:35.700Z,100305.72
2023-03-06T04:48:03.173Z,100306.69
2023-03-06T04:50:43.146Z,100309.00
2023-03-06T04:53:16.847Z,100307.78
2023-03-06T04:55:48.182Z,100305.72
2023-03-06T04:58:17.586Z,100295.59
2023-03-06T05:00:44.480Z,100307.78
2023-03-06T05:03:22.372Z,100300.31
2023-03-06T05:06:10.751Z,100292.44
2023-03-06T05:08:40.561Z,100301.25
2023-03-06T05:11:20.667Z,100299.34
2023-03-06T05:13:56.583Z,100294.38
2023-03-06T05:16:26.451Z,100295.59
2023-03-06T05:19:08.823Z,100302.06
2023-03-06T05:21:42.118Z,100302.31
2023-03-06T05:24:14.791Z,100305.78
2023-03-06T05:26:51.584Z,100316.03
2023-03-06T05:29:25.319Z,100312.16
2023-03-06T05:32:08.839Z,100303.09
2023-03-06T05:34:41.986Z,100306.22
2023-03-06T05:37:08.998Z,100309.81
2023-03-06T05:39:52.633Z,100311.22
2023-03-06T05:42:23.233Z,100302.66
2023-03-06T05:44:53.903Z,100316.41
2023-03-06T05:47:26.768Z,100309.78
2023-03-06T05:50:10.733Z,100309.63
2023-03-06T05:55:38.658Z,100307.06
2023-03-06T05:58:11.496Z,100294.53
2023-03-06T06:00:42.019Z,100300.03
2023-03-06T06:03:12.218Z,100307.91
2023-03-06T06:05:40.319Z,100318.59
2023-03-06T06:08:08.357Z,100322.06
2023-03-06T06:10:36.466Z,100313.38
2023-03-06T06:13:06.154Z,100312.53
2023-03-06T06:15:43.026Z,100320.03
2023-03-06T06:18:15.633Z,100317.59
2023-03-06T06:20:42.480Z,100316.19
2023-03-06T06:23:14.330Z,100317.06
2023-03-06T06:25:41.320Z,100314.56
2023-03-06T06:28:13.185Z,100310.78
2023-03-06T06:30:42.785Z,100306.19
2023-03-06T06:33:19.382Z,100296.72
2023-03-06T06:35:46.458Z,100304.63
2023-03-06T06:38:22.244Z,100317.91
2023-03-06T06:41:19.341Z,100321.63
2023-03-06T06:43:42.079Z,100320.69
2023-03-06T06:46:53.391Z,100321.63
2023-03-06T06:49:05.790Z,100326.22
2023-03-06T06:51:39.013Z,100333.69
2023-03-06T06:54:06.548Z,100332.66
2023-03-06T06:56:34.759Z,100326.66
2023-03-06T06:59:16.710Z,100334.34
2023-03-06T07:01:52.781Z,100331.66
2023-03-06T07:04:23.484Z,100325.50
2023-03-06T07:06:55.320Z,100333.13
2023-03-06T07:09:22.563Z,100326.25
2023-03-06T07:11:52.565Z,100318.72
2023-03-06T07:14:21.543Z,100330.47
2023-03-06T07:16:49.939Z,100325.78
2023-03-06T07:19:19.777Z,100323.28
2023-03-06T07:21:55.619Z,100320.94
2023-03-06T07:24:22.481Z,100324.47
2023-03-06T07:26:49.224Z,100324.59
2023-03-06T07:29:16.174Z,100310.78
2023-03-06T07:31:43.020Z,100315.31
2023-03-06T07:34:17.859Z,100316.84
2023-03-06T07:36:48.826Z,100322.41
2023-03-06T07:39:15.750Z,100314.94
2023-03-06T07:41:48.384Z,100312.50
2023-03-06T07:44:15.163Z,100317.06
2023-03-06T07:46:47.776Z,100320.47
2023-03-06T07:49:14.693Z,100316.84
2023-03-06T07:51:47.351Z,100317.88
2023-03-06T07:54:14.176Z,100320.50
2023-03-06T07:56:40.979Z,100319.78
2023-03-06T07:59:11.945Z,100321.09
2023-03-06T08:01:40.400Z,100317.16
2023-03-06T08:04:07.292Z,100318.53
2023-03-06T08:06:38.475Z,100310.06
2023-03-06T08:09:11.571Z,100315.25
2023-03-06T08:11:38.344Z,100309.41
2023-03-06T08:14:05.308Z,100306.81
2023-03-06T08:16:40.728Z,100310.47
2023-03-06T08:19:29.069Z,100313.94
2023-03-06T08:22:16.079Z,100314.66
2023-03-06T08:24:43.822Z,100317.81
2023-03-06T08:27:23.282Z,100312.47
2023-03-06T08:30:03.772Z,100313.66
2023-03-06T08:32:37.476Z,100312.91
2023-03-06T08:35:17.320Z,100310.72
2023-03-06T08:37:47.118Z,100302.72
2023-03-06T08:40:27.855Z,100305.25
2023-03-06T08:43:00.817Z,100311.63
2023-03-06T08:45:55.105Z,100305.34
2023-03-06T08:48:33.862Z,100306.00
2023-03-06T08:51:05.309Z,100307.97
2023-03-06T08:53:43.409Z,100303.41
2023-03-06T08:56:35.038Z,100311.22
2023-03-06T08:59:10.719Z,100309.28
2023-03-06T09:01:46.701Z,100306.63
2023-03-06T09:04:13.509Z,100314.34
2023-03-06T09:06:49.295Z,100306.19
2023-03-06T09:09:22.986Z,100301.13
2023-03-06T09:11:51.370Z,100307.00
2023-03-06T09:14:25.520Z,100304.31
2023-03-06T09:17:02.201Z,100301.50
2023-03-06T09:19:38.672Z,100294.53
2023-03-06T09:22:08.686Z,100310.84
2023-03-06T09:25:01.488Z,100307.25
2023-03-06T09:27:33.198Z,100303.25
2023-03-06T09:30:06.433Z,100304.59
2023-03-06T09:32:33.334Z,100297.13
2023-03-06T09:35:06.979Z,100297.75
2023-03-06T09:37:42.774Z,100284.66
2023-03-06T09:40:30.252Z,100290.25
2023-03-06T09:42:59.771Z,100284.59
2023-03-06T09:45:32.616Z,100281.03
2023-03-06T09:48:13.690Z,100292.41
2023-03-06T09:50:46.701Z,100284.50
2023-03-06T09:53:31.821Z,100288.75
2023-03-06T09:56:06.984Z,100277.75
2023-03-06T09:58:50.325Z,100284.22
2023-03-06T10:01:25.335Z,100288.75
2023-03-06T10:04:09.253Z,100293.91
2023-03-06T10:06:55.424Z,100294.06
2023-03-06T10:09:43.364Z,100293.41
2023-03-06T10:12:26.027Z,100290.50
2023-03-06T10:14:58.767Z,100290.19
2023-03-06T10:17:35.484Z,100283.72
2023-03-06T10:20:26.761Z,100290.78
2023-03-06T10:23:31.164Z,100281.72
2023-03-06T10:26:34.374Z,100284.81
2023-03-06T10:29:29.741Z,100285.34
2023-03-06T10:32:18.104Z,100285.50
2023-03-06T10:34:48.260Z,100282.00
2023-03-06T10:37:40.301Z,100277.03
2023-03-06T10:40:23.053Z,100270.31
2023-03-06T10:43:09.338Z,100272.59
2023-03-06T10:45:49.540Z,100270.47
2023-03-06T10:48:26.862Z,100265.09
2023-03-06T10:51:23.350Z,100269.97
2023-03-06T10:54:02.013Z,100258.28
2023-03-06T10:56:58.067Z,100259.66
2023-03-06T10:59:35.384Z,100259.19
2023-03-06T11:02:27.509Z,100257.41
2023-03-06T11:05:00.299Z,100259.28
2023-03-06T11:07:37.861Z,100252.50
2023-03-06T11:10:32.474Z,100252.91
2023-03-06T11:13:06.446Z,100256.50
2023-03-06T11:15:42.773Z,100257.06
2023-03-06T11:18:09.441Z,100257.50
2023-03-06T11:20:52.549Z,100257.63
2023-03-06T11:23:55.480Z,100249.38
2023-03-06T11:26:34.496Z,100249.00
2023-03-06T11:29:38.582Z,100252.50
2023-03-06T11:32:36.020Z,100252.19
2023-03-06T11:35:41.310Z,100246.19
2023-03-06T11:38:22.617Z,100241.09
2023-03-06T11:40:59.952Z,100244.47
2023-03-06T11:43:57.183Z,100240.28
2023-03-06T11:46:52.395Z,100233.00
2023-03-06T11:49:59.278Z,100236.16
2023-03-06T11:52:52.320Z,100244.31
2023-03-06T11:55:28.563Z,100232.38
2023-03-06T11:58:14.587Z,100228.47
2023-03-06T12:01:06.226Z,100231.47
2023-03-06T12:04:07.175Z,100225.63
2023-03-06T12:06:49.337Z,100229.69
2023-03-06T12:09:44.004Z,100221.94
2023-03-06T12:12:35.048Z,100217.66
2023-03-06T12:15:26.999Z,100211.75
2023-03-06T12:18:29.075Z,100200.22
2023-03-06T12:21:13.994Z,100202.47
2023-03-06T12:24:00.920Z,100198.31
2023-03-06T12:26:39.409Z,100188.84
2023-03-06T12:29:44.085Z,100177.78
2023-03-06T12:33:12.430Z,100180.00
2023-03-06T12:35:54.885Z,100170.91
2023-03-06T12:38:46.688Z,100170.13
2023-03-06T12:41:36.970Z,100163.09
2023-03-06T12:44:50.392Z,100162.81
2023-03-06T12:47:35.014Z,100163.09
2023-03-06T12:50:22.680Z,100158.69
2023-03-06T12:52:55.169Z,100155.00
2023-03-06T12:55:26.041Z,100156.78
2023-03-06T12:58:37.089Z,100151.69
2023-03-06T13:01:34.859Z,100152.63
2023-03-06T13:04:38.833Z,100152.50
2023-03-06T13:07:34.950Z,100145.59
2023-03-06T13:10:16.450Z,100152.28
2023-03-06T13:13:00.949Z,100148.13
2023-03-06T13:16:03.841Z,100144.72
2023-03-06T13:18:39.210Z,100123.28
2023-03-06T13:21:06.036Z,100123.34
2023-03-06T13:23:37.641Z,100116.50
2023-03-06T13:26:25.699Z,100117.69
2023-03-06T13:28:59.215Z,100111.34
2023-03-06T13:31:28.291Z,100111.41
2023-03-06T13:34:08.690Z,100112.13
2023-03-06T13:36:46.368Z,100107.69
2023-03-06T13:42:04.094Z,100099.81
2023-03-06T13:44:44.583Z,100093.81
2023-03-06T13:48:43.227Z,100091.66
2023-03-06T13:51:36.065Z,100082.81
2023-03-06T13:54:35.168Z,100088.66
2023-03-06T13:57:43.729Z,100085.66
2023-03-06T14:00:58.834Z,100078.88
2023-03-06T14:03:40.138Z,100080.75
2023-03-06T14:06:57.917Z,100072.16
2023-03-06T14:09:46.324Z,100074.50
2023-03-06T14:12:27.736Z,100073.84
2023-03-06T14:15:13.186Z,100075.53
2023-03-06T14:18:07.457Z,100064.69
2023-03-06T14:20:54.006Z,100062.03
2023-03-06T14:23:32.375Z,100059.38
2023-03-06T14:26:25.186Z,100064.22
2023-03-06T14:29:08.451Z,100054.84
2023-03-06T14:31:45.018Z,100055.97
2023-03-06T14:34:30.173Z,100049.25
2023-03-06T14:37:12.428Z,100057.38
2023-03-06T14:42:48.024Z,100054.63
2023-03-06T14:45:18.930Z,100050.69
2023-03-06T14:47:59.296Z,100052.28
2023-03-06T14:50:39.401Z,100054.53
2023-03-06T14:53:20.056Z,100044.91
2023-03-06T14:56:06.257Z,100043.41
2023-03-06T14:58:41.023Z,100041.63
2023-03-06T15:01:10.987Z,100042.56
2023-03-06T15:03:52.380Z,100042.72
2023-03-06T15:06:38.715Z,100044.34
2023-03-06T15:09:35.107Z,100030.84
2023-03-06T15:12:09.675Z,100032.34
2023-03-06T15:14:44.189Z,100034.53
2023-03-06T15:17:24.227Z,100030.16
2023-03-06T15:19:55.126Z,100024.09
2023-03-06T15:22:29.245Z,100027.50
2023-03-06T15:25:35.214Z,100027.19
2023-03-06T15:28:29.111Z,100015.81
2023-03-06T15:31:31.135Z,100018.81
2023-03-06T15:34:08.078Z,100014.44
2023-03-06T15:36:50.178Z,100019.81
2023-03-06T15:42:30.920Z,100014.53
2023-03-06T15:45:16.880Z,100017.81
2023-03-06T15:47:53.860Z,100016.28
2023-03-06T15:50:26.877Z,100020.28
2023-03-06T15:52:56.951Z,100013.19
2023-03-06T15:55:32.365Z,100014.97
2023-03-06T15:58:07.456Z,100013.13
2023-03-06T16:01:02.899Z,100011.44
2023-03-06T16:03:31.866Z,100010.50
2023-03-06T16:06:02.333Z,100021.13
2023-03-06T16:08:34.009Z,100016.03
2023-03-06T16:11:00.712Z,100009.31
2023-03-06T16:13:29.052Z,100014.28
2023-03-06T16:15:56.347Z,100012.44
2023-03-06T16:18:25.948Z,100013.34
2023-03-06T16:20:59.708Z,100016.88
2023-03-06T16:23:26.512Z,100018.13
2023-03-06T16:25:56.549Z,100011.94
2023-03-06T16:28:34.585Z,100007.38
2023-03-06T16:31:01.553Z,100010.97
2023-03-06T16:33:30.068Z,100010.97
2023-03-06T16:35:58.736Z,100014.94
2023-03-06T16:38:25.597Z,100010.31
2023-03-06T16:40:55.227Z,100013.03
2023-03-06T16:43:22.015Z,100011.75
2023-03-06T16:45:55.285Z,100013.25
2023-03-06T16:48:22.457Z,100017.38
2023-03-06T16:51:14.970Z,100014.50
2023-03-06T16:53:58.025Z,100014.66
2023-03-06T16:56:37.670Z,100033.31
2023-03-06T16:59:08.231Z,100031.84
2023-03-06T17:01:35.419Z,100030.69
2023-03-06T17:04:02.216Z,100031.63
2023-03-06T17:06:29.230Z,100034.06
2023-03-06T17:08:58.351Z,100030.91
2023-03-06T17:11:27.108Z,100030.00
2023-03-06T17:13:55.483Z,100032.59
2023-03-06T17:16:23.913Z,100033.88
2023-03-06T17:19:03.694Z,100035.94
2023-03-06T17:21:46.130Z,100035.41
2023-03-06T17:24:13.327Z,100035.69
2023-03-06T17:26:46.618Z,100031.22
2023-03-06T17:29:19.267Z,100034.81
2023-03-06T17:32:03.670Z,100045.38
2023-03-06T17:34:30.449Z,100035.50
2023-03-06T17:37:00.428Z,100043.69
2023-03-06T17:39:44.218Z,100045.50
2023-03-06T17:42:14.365Z,100053.41
2023-03-06T17:44:41.676Z,100057.56
2023-03-06T17:47:22.181Z,100059.81
2023-03-06T17:49:52.273Z,100061.66
2023-03-06T17:52:24.378Z,100061.47
2023-03-06T17:54:51.351Z,100068.91
2023-03-06T17:57:26.003Z,100067.66
2023-03-06T17:59:57.379Z,100071.69
2023-03-06T18:02:27.646Z,100073.66
2023-03-06T18:04:59.378Z,100081.44
2023-03-06T18:07:28.974Z,100080.66
2023-03-06T18:10:04.220Z,100080.47
2023-03-06T18:12:39.868Z,100077.09
2023-03-06T18:15:07.285Z,100080.31
2023-03-06T18:17:44.490Z,100082.69
2023-03-06T18:20:19.815Z,100085.47
2023-03-06T18:22:57.516Z,100085.34
2023-03-06T18:25:38.817Z,100079.94
2023-03-06T18:28:19.584Z,100090.59
2023-03-06T18:30:48.701Z,100085.00
2023-03-06T18:33:20.951Z,100077.72
2023-03-06T18:35:57.114Z,100083.50
2023-03-06T18:38:33.181Z,100082.16
2023-03-06T18:41:05.206Z,100080.91
2023-03-06T18:43:43.793Z,100070.78
2023-03-06T18:46:14.556Z,100073.94
2023-03-06T18:48:47.693Z,100072.66
2023-03-06T18:51:21.105Z,100071.78
2023-03-06T18:53:48.578Z,100076.13
2023-03-06T18:56:21.446Z,100080.78
2023-03-06T18:58:50.477Z,100079.06
2023-03-06T19:01:21.340Z,100079.91
2023-03-06T19:03:48.651Z,100083.97
2023-03-06T19:06:28.021Z,100079.19
2023-03-06T19:09:11.781Z,100082.53
2023-03-06T19:11:38.656Z,100085.84
2023-03-06T19:14:25.663Z,100079.47
2023-03-06T19:16:57.120Z,100081.50
2023-03-06T19:19:30.230Z,100075.38
2023-03-06T19:22:01.058Z,100076.63
2023-03-06T19:24:37.037Z,100080.53
2023-03-06T19:27:11.549Z,100082.28
2023-03-06T19:29:54.966Z,100083.47
2023-03-06T19:32:37.143Z,100082.75
2023-03-06T19:35:19.876Z,100078.00
2023-03-06T19:38:08.171Z,100078.22
2023-03-06T19:40:47.887Z,100076.34
2023-03-06T19:43:41.942Z,100071.09
2023-03-06T19:46:19.401Z,100076.34
2023-03-06T19:48:56.211Z,100077.16
2023-03-06T19:51:58.111Z,100074.03
2023-03-06T19:54:54.801Z,100071.72
2023-03-06T19:57:31.385Z,100079.25
2023-03-06T20:00:11.118Z,100072.31
2023-03-06T20:02:39.818Z,100075.50
2023-03-06T20:05:12.612Z,100076.34
2023-03-06T20:07:39.414Z,100083.78
2023-03-06T20:10:07.101Z,100076.19
2023-03-06T20:12:37.726Z,100074.28
2023-03-06T20:15:09.492Z,100076.09
2023-03-06T20:17:49.822Z,100076.34
2023-03-06T20:20:16.882Z,100072.81
2023-03-06T20:22:52.864Z,100075.09
2023-03-06T20:25:37.057Z,100073.34
2023-03-06T20:28:11.241Z,100079.31
2023-03-06T20:30:49.633Z,100076.88
2023-03-06T20:33:22.531Z,100072.38
2023-03-06T20:36:01.794Z,100075.97
2023-03-06T20:38:39.752Z,100072.56
2023-03-06T20:41:08.534Z,100080.03
2023-03-06T20:43:47.417Z,100075.81
2023-03-06T20:46:34.429Z,100083.38
2023-03-06T20:49:49.276Z,100082.13
2023-03-06T20:52:29.075Z,100077.28
2023-03-06T20:55:03.242Z,100075.22
2023-03-06T20:57:39.302Z,100075.25
2023-03-06T21:00:20.143Z,100083.47
2023-03-06T21:02:59.718Z,100077.41
2023-03-06T21:05:40.683Z,100077.88
2023-03-06T21:08:20.640Z,100073.53
2023-03-06T21:10:56.000Z,100070.09
2023-03-06T21:13:58.001Z,100080.16
2023-03-06T21:16:32.395Z,100068.44
2023-03-06T21:19:27.316Z,100074.91
2023-03-06T21:22:01.530Z,100076.47
2023-03-06T21:24:32.225Z,100076.47
2023-03-06T21:26:59.255Z,100081.81
2023-03-06T21:35:05.668Z,100084.31
2023-03-06T21:37:43.628Z,100087.63
2023-03-06T21:40:12.273Z,100095.88
2023-03-06T21:42:50.656Z,100091.53
2023-03-06T21:48:16.962Z,100099.25
2023-03-06T21:50:45.295Z,100096.25
2023-03-06T21:56:33.120Z,100096.97
2023-03-06T21:59:08.202Z,100096.13
2023-03-06T22:01:48.818Z,100111.13
2023-03-06T22:04:33.571Z,100104.25
2023-03-06T22:07:10.311Z,100104.19
2023-03-06T22:09:43.182Z,100101.88
2023-03-06T22:12:15.460Z,100109.66
2023-03-06T22:14:50.721Z,100113.75
2023-03-06T22:17:17.798Z,100107.78
2023-03-06T22:22:56.134Z,100109.19
2023-03-06T22:25:26.698Z,100112.91
2023-03-06T22:27:54.642Z,100110.09
2023-03-06T22:30:24.321Z,100110.31
2023-03-06T22:32:56.370Z,100104.72
2023-03-06T22:35:31.431Z,100104.88
2023-03-06T22:38:23.471Z,100107.97
2023-03-06T22:41:03.707Z,100104.25
2023-03-06T22:43:53.533Z,100105.84
2023-03-06T22:46:46.546Z,100105.34
2023-03-06T22:49:26.123Z,100102.41
2023-03-06T22:51:59.031Z,100102.41
2023-03-06T22:54:46.578Z,100109.28
2023-03-06T22:57:32.526Z,100107.91
2023-03-06T22:59:59.882Z,100113.88
2023-03-06T23:03:02.153Z,100111.31
2023-03-06T23:05:35.859Z,100119.19
2023-03-06T23:08:04.608Z,100110.66
2023-03-06T23:10:34.355Z,100116.72
2023-03-06T23:13:10.978Z,100111.56
2023-03-06T23:15:47.848Z,100115.81
2023-03-06T23:18:29.514Z,100117.44
2023-03-06T23:21:13.930Z,100119.06
2023-03-06T23:23:54.290Z,100122.16
2023-03-06T23:26:42.040Z,100120.81
2023-03-06T23:29:10.760Z,100118.66
2023-03-06T23:32:05.603Z,100122.25
2023-03-06T23:34:32.519Z,100116.25
2023-03-06T23:37:10.143Z,100125.16
2023-03-06T23:39:54.106Z,100129.25
2023-03-06T23:42:55.581Z,100126.41
2023-03-06T23:45:38.804Z,100132.63
2023-03-06T23:48:12.321Z,100126.72
2023-03-06T23:50:47.918Z,100129.31
2023-03-06T23:53:14.863Z,100133.88
2023-03-06T23:55:57.842Z,100140.81
2023-03-06T23:58:45.245Z,100136.25
